Time;durP1;ratioP1;P1;durP2;ratioP2;P2;SDS_P1;SDS_P2;PMS_P1;PMS_P2;Temp;Humidity;BMP_temperature;BMP_pressure;BME280_temperature;BME280_humidity;BME280_pressure;Samples;Min_cycle;Max_cycle;Signal;HPM_P1;HPM_P2
2022/04/23 00:00:28;;;;;;;32.55;7.78;;;13.80;99.90;;;;;;5039342;28;20045;-72
2022/04/23 00:02:58;;;;;;;36.30;8.30;;;13.80;99.90;;;;;;5022393;28;20046;-73
2022/04/23 00:05:23;;;;;;;36.25;8.13;;;13.90;99.90;;;;;;5007985;28;20421;-72
2022/04/23 00:07:50;;;;;;;32.15;7.47;;;13.90;99.90;;;;;;5042707;28;20091;-72
2022/04/23 00:10:16;;;;;;;31.35;8.05;;;14.00;99.90;;;;;;5027734;28;20094;-73
2022/04/23 00:12:46;;;;;;;31.08;7.70;;;14.00;99.90;;;;;;5040756;28;20612;-72
2022/04/23 00:15:12;;;;;;;31.73;8.40;;;14.00;99.90;;;;;;5021739;28;20064;-73
2022/04/23 00:17:38;;;;;;;46.03;10.10;;;14.00;99.90;;;;;;5041484;28;20461;-74
2022/04/23 00:20:05;;;;;;;35.65;8.15;;;14.10;99.90;;;;;;5040912;28;20051;-74
2022/04/23 00:22:33;;;;;;;39.03;8.10;;;14.10;99.90;;;;;;5043464;28;20128;-73
2022/04/23 00:24:59;;;;;;;30.38;8.23;;;14.10;99.90;;;;;;5040944;28;20387;-72
2022/04/23 00:27:26;;;;;;;37.80;8.70;;;14.10;99.90;;;;;;5022133;28;20049;-72
2022/04/23 00:29:52;;;;;;;31.80;8.20;;;14.10;99.90;;;;;;5042202;28;20032;-73
2022/04/23 00:32:18;;;;;;;45.38;10.20;;;14.20;99.90;;;;;;5034892;28;20089;-72
2022/04/23 00:34:44;;;;;;;36.80;8.90;;;14.10;99.90;;;;;;5041209;28;20128;-73
2022/04/23 00:37:10;;;;;;;40.20;9.70;;;14.10;99.90;;;;;;5026722;28;20049;-72
2022/04/23 00:39:37;;;;;;;38.83;10.07;;;14.00;99.90;;;;;;5043361;28;20047;-73
2022/04/23 00:42:08;;;;;;;39.55;9.23;;;14.00;99.90;;;;;;5050463;28;20314;-73
2022/04/23 00:44:37;;;;;;;34.38;9.77;;;14.00;99.90;;;;;;5036184;28;20079;-73
2022/04/23 00:47:04;;;;;;;40.95;10.32;;;14.00;99.90;;;;;;5039618;28;20198;-72
2022/04/23 00:49:31;;;;;;;43.67;10.27;;;13.90;99.90;;;;;;5040440;28;20110;-73
2022/04/23 00:51:58;;;;;;;32.78;10.95;;;13.90;99.90;;;;;;5036782;28;20083;-73
2022/04/23 00:54:24;;;;;;;41.85;11.82;;;13.90;99.90;;;;;;5041425;28;20135;-73
2022/04/23 00:56:53;;;;;;;39.70;10.80;;;13.90;99.90;;;;;;5024914;28;20040;-72
2022/04/23 00:59:19;;;;;;;55.00;12.00;;;14.00;99.90;;;;;;5023471;28;20044;-74
2022/04/23 01:01:45;;;;;;;49.20;12.00;;;13.90;99.90;;;;;;5023359;28;20053;-72
2022/04/23 01:04:13;;;;;;;41.20;11.95;;;13.90;99.90;;;;;;5025876;28;20037;-73
2022/04/23 01:06:39;;;;;;;40.53;11.80;;;13.90;99.90;;;;;;5025335;28;20641;-73
2022/04/23 01:09:08;;;;;;;48.33;11.55;;;14.00;99.90;;;;;;5039512;28;20124;-73
2022/04/23 01:11:35;;;;;;;40.95;11.88;;;14.00;99.90;;;;;;5037741;28;20037;-73
2022/04/23 01:14:03;;;;;;;34.28;10.48;;;14.00;99.90;;;;;;5040564;28;20182;-73
2022/04/23 01:16:29;;;;;;;44.50;11.98;;;14.10;99.90;;;;;;5027698;28;20024;-72
2022/04/23 01:18:55;;;;;;;35.33;10.85;;;14.00;99.90;;;;;;5022358;28;20123;-73
2022/04/23 01:21:21;;;;;;;41.40;12.23;;;14.00;99.90;;;;;;5015654;28;20049;-75
2022/04/23 01:23:48;;;;;;;43.25;11.48;;;14.00;99.90;;;;;;5018410;28;20381;-73
2022/04/23 01:26:26;;;;;;;38.25;11.60;;;14.00;99.90;;;;;;5026030;28;20033;-73
2022/04/23 01:28:54;;;;;;;41.28;11.60;;;14.00;99.90;;;;;;5029448;28;20495;-74
2022/04/23 01:31:21;;;;;;;51.90;12.55;;;14.10;99.90;;;;;;5002360;28;20090;-72
2022/04/23 01:33:47;;;;;;;54.63;12.60;;;14.00;99.90;;;;;;5041020;28;20033;-73
2022/04/23 01:36:14;;;;;;;49.90;12.25;;;14.00;99.90;;;;;;5038434;28;20109;-73
2022/04/23 01:38:42;;;;;;;44.67;10.60;;;14.00;99.90;;;;;;5043035;28;20041;-74
2022/04/23 01:41:09;;;;;;;45.08;11.00;;;14.00;99.90;;;;;;5040915;28;20044;-73
2022/04/23 01:43:36;;;;;;;48.08;10.77;;;13.90;99.90;;;;;;5039188;28;20472;-74
2022/04/23 01:46:02;;;;;;;38.42;10.93;;;13.90;99.90;;;;;;5042816;28;20052;-73
2022/04/23 01:48:27;;;;;;;43.67;9.77;;;13.90;99.90;;;;;;5023787;28;20092;-73
2022/04/23 01:50:55;;;;;;;34.70;8.23;;;13.90;99.90;;;;;;5043841;28;20042;-74
2022/04/23 01:53:24;;;;;;;38.88;8.95;;;13.90;99.90;;;;;;5021717;28;20124;-72
2022/04/23 01:55:56;;;;;;;42.22;8.75;;;14.00;99.90;;;;;;5029967;28;20119;-73
2022/04/23 01:58:23;;;;;;;38.28;10.25;;;14.00;99.90;;;;;;5023751;28;20102;-73
2022/04/23 02:00:49;;;;;;;38.50;8.30;;;14.00;99.90;;;;;;5040053;28;20037;-73
2022/04/23 02:03:15;;;;;;;37.72;8.25;;;14.00;99.90;;;;;;5029885;28;20049;-73
2022/04/23 02:05:41;;;;;;;37.83;8.38;;;14.00;99.90;;;;;;5039189;28;20033;-74
2022/04/23 02:08:13;;;;;;;48.85;9.07;;;13.90;99.90;;;;;;5040630;28;20041;-73
2022/04/23 02:10:39;;;;;;;39.38;9.88;;;13.90;99.90;;;;;;5043686;28;20462;-72
2022/04/23 02:13:05;;;;;;;35.80;8.38;;;13.90;99.90;;;;;;5035383;28;20052;-73
2022/04/23 02:15:32;;;;;;;43.45;8.85;;;14.00;99.90;;;;;;5025950;28;20105;-72
2022/04/23 02:18:00;;;;;;;38.58;8.40;;;14.00;99.90;;;;;;5043809;28;20041;-74
2022/04/23 02:20:28;;;;;;;42.25;7.97;;;14.00;99.90;;;;;;5043015;28;20067;-73
2022/04/23 02:22:54;;;;;;;39.72;9.07;;;14.00;99.90;;;;;;5041288;28;20065;-73
2022/04/23 02:25:21;;;;;;;38.28;7.97;;;13.90;99.90;;;;;;5025590;28;20068;-73
2022/04/23 02:27:50;;;;;;;35.55;7.63;;;13.90;99.90;;;;;;5041498;28;20047;-73
2022/04/23 02:30:18;;;;;;;39.45;8.02;;;13.90;99.90;;;;;;5042026;28;20029;-73
2022/04/23 02:32:45;;;;;;;44.00;7.47;;;14.00;99.90;;;;;;5043276;28;20042;-73
2022/04/23 02:35:12;;;;;;;41.67;8.05;;;14.00;99.90;;;;;;5019028;28;20536;-73
2022/04/23 02:37:42;;;;;;;39.20;7.65;;;14.00;99.90;;;;;;5047220;28;20041;-73
2022/04/23 02:40:08;;;;;;;32.35;7.55;;;14.10;99.90;;;;;;5041935;28;20496;-72
2022/04/23 02:42:37;;;;;;;36.72;7.80;;;14.10;99.90;;;;;;5010256;28;20056;-73
2022/04/23 02:45:07;;;;;;;47.53;7.35;;;14.10;99.90;;;;;;5012368;28;20044;-73
2022/04/23 02:47:53;;;;;;;45.97;8.00;;;14.10;99.90;;;;;;5044470;28;20740;-74
2022/04/23 02:50:26;;;;;;;36.92;7.28;;;14.20;99.90;;;;;;5039121;28;20163;-72
2022/04/23 02:53:09;;;;;;;36.70;8.20;;;14.20;99.90;;;;;;5038975;28;20037;-73
2022/04/23 02:55:38;;;;;;;39.42;8.93;;;14.20;99.90;;;;;;5023261;28;20040;-73
2022/04/23 02:58:09;;;;;;;29.67;7.18;;;14.20;99.90;;;;;;5052538;28;20034;-73
2022/04/23 03:00:41;;;;;;;28.45;7.68;;;14.20;99.90;;;;;;5041943;28;20045;-73
2022/04/23 03:03:08;;;;;;;33.90;7.40;;;14.20;99.90;;;;;;5038912;28;20045;-73
2022/04/23 03:05:35;;;;;;;32.10;7.05;;;14.20;99.90;;;;;;5044026;28;20112;-74
2022/04/23 03:08:02;;;;;;;34.75;7.20;;;14.30;99.90;;;;;;5024355;28;20037;-72
2022/04/23 03:10:29;;;;;;;34.85;7.60;;;14.30;99.90;;;;;;5038895;28;20032;-74
2022/04/23 03:12:57;;;;;;;36.55;7.60;;;14.30;99.90;;;;;;5041025;28;20049;-73
2022/04/23 03:15:28;;;;;;;34.25;8.23;;;14.30;99.90;;;;;;5055346;28;20045;-73
2022/04/23 03:18:12;;;;;;;33.67;7.45;;;14.30;99.90;;;;;;5037964;28;20404;-72
2022/04/23 03:20:41;;;;;;;39.38;7.25;;;14.20;99.90;;;;;;5022506;28;20037;-72
2022/04/23 03:23:06;;;;;;;31.25;7.70;;;14.10;99.90;;;;;;5036899;28;20103;-72
2022/04/23 03:25:33;;;;;;;32.53;7.43;;;14.10;99.90;;;;;;5041078;28;20108;-72
2022/04/23 03:28:00;;;;;;;33.70;7.40;;;14.20;99.90;;;;;;5039329;28;20055;-73
2022/04/23 03:30:27;;;;;;;31.17;7.93;;;14.10;99.90;;;;;;5025807;28;20033;-73
2022/04/23 03:32:54;;;;;;;38.88;6.80;;;14.10;99.90;;;;;;5041016;28;20552;-73
2022/04/23 03:35:21;;;;;;;37.65;7.07;;;14.10;99.90;;;;;;5026907;28;20037;-73
2022/04/23 03:37:48;;;;;;;32.40;7.20;;;14.10;99.90;;;;;;5039936;28;20396;-73
2022/04/23 03:40:15;;;;;;;34.15;6.53;;;14.10;99.90;;;;;;5021686;28;20503;-73
2022/04/23 03:42:45;;;;;;;33.00;7.00;;;14.00;99.90;;;;;;5029255;28;20069;-73
2022/04/23 03:45:11;;;;;;;32.53;6.72;;;14.10;99.90;;;;;;5026053;28;20036;-72
2022/04/23 03:47:42;;;;;;;22.13;6.05;;;14.10;99.90;;;;;;5004313;28;20095;-73
2022/04/23 03:50:09;;;;;;;32.83;6.95;;;14.10;99.90;;;;;;5037847;28;20033;-72
2022/04/23 03:52:35;;;;;;;31.90;6.40;;;14.10;99.90;;;;;;5042173;28;20107;-73
2022/04/23 03:55:02;;;;;;;39.60;7.68;;;14.00;99.90;;;;;;5026766;28;20036;-73
2022/04/23 03:57:28;;;;;;;29.15;7.22;;;14.10;99.90;;;;;;5056221;28;21525;-73
2022/04/23 03:59:54;;;;;;;28.85;6.95;;;14.10;99.90;;;;;;5041988;28;20045;-73
2022/04/23 04:02:20;;;;;;;31.15;7.00;;;14.00;99.90;;;;;;5042528;28;20462;-72
2022/04/23 04:04:47;;;;;;;30.48;6.43;;;14.00;99.90;;;;;;5023226;28;20091;-73
2022/04/23 04:07:21;;;;;;;25.10;6.38;;;14.10;99.90;;;;;;5024280;28;20040;-73
2022/04/23 04:09:47;;;;;;;33.05;6.68;;;14.00;99.90;;;;;;5016800;28;20040;-73
2022/04/23 04:12:13;;;;;;;31.23;6.40;;;14.10;99.90;;;;;;5017016;28;20048;-73
2022/04/23 04:14:40;;;;;;;33.03;7.00;;;14.10;99.90;;;;;;5024288;28;20089;-74
2022/04/23 04:17:14;;;;;;;26.98;7.15;;;14.20;99.90;;;;;;5023368;28;20358;-74
2022/04/23 04:19:40;;;;;;;26.08;5.57;;;14.30;99.90;;;;;;5017882;28;20045;-74
2022/04/23 04:22:09;;;;;;;26.48;5.95;;;14.20;99.90;;;;;;5021481;28;20124;-73
2022/04/23 04:24:35;;;;;;;31.67;6.47;;;14.30;99.90;;;;;;5018500;28;20536;-73
2022/04/23 04:27:02;;;;;;;25.35;6.13;;;14.30;99.90;;;;;;5017640;28;20030;-73
2022/04/23 04:29:29;;;;;;;32.92;6.75;;;14.20;99.90;;;;;;5017387;28;20124;-73
2022/04/23 04:31:55;;;;;;;31.30;6.75;;;14.20;99.90;;;;;;5019658;28;20132;-74
2022/04/23 04:34:28;;;;;;;35.17;6.68;;;14.20;99.90;;;;;;5021598;28;20041;-74
2022/04/23 04:37:03;;;;;;;24.55;6.15;;;14.20;99.90;;;;;;5024498;28;20034;-73
2022/04/23 04:39:30;;;;;;;29.98;6.03;;;14.20;99.90;;;;;;5017968;28;20037;-75
2022/04/23 04:41:56;;;;;;;31.27;6.45;;;14.30;99.90;;;;;;5018194;28;20064;-73
2022/04/23 04:44:22;;;;;;;32.15;6.35;;;14.20;99.90;;;;;;5002728;28;20454;-73
2022/04/23 04:46:48;;;;;;;33.70;6.90;;;14.20;99.90;;;;;;5011721;28;20034;-72
2022/04/23 04:49:14;;;;;;;23.88;5.63;;;14.30;99.90;;;;;;5018782;28;20030;-73
2022/04/23 04:51:41;;;;;;;36.55;7.75;;;14.30;99.90;;;;;;5019695;28;20049;-73
2022/04/23 04:54:07;;;;;;;31.52;6.18;;;14.30;99.90;;;;;;5015193;28;20109;-73
2022/04/23 04:56:33;;;;;;;32.80;6.30;;;14.40;99.90;;;;;;5019858;28;20098;-73
2022/04/23 04:59:00;;;;;;;37.80;7.03;;;14.40;99.90;;;;;;5016713;28;20034;-74
2022/04/23 05:01:28;;;;;;;33.35;7.22;;;14.30;99.90;;;;;;5017364;28;20038;-73
2022/04/23 05:03:55;;;;;;;32.17;6.10;;;14.30;99.90;;;;;;5019669;28;20101;-73
2022/04/23 05:06:22;;;;;;;24.88;6.65;;;14.40;99.90;;;;;;5024332;28;20037;-73
2022/04/23 05:08:48;;;;;;;29.40;7.15;;;14.40;99.90;;;;;;5028184;28;20574;-76
2022/04/23 05:11:14;;;;;;;33.42;6.82;;;14.40;99.90;;;;;;5025900;28;20037;-75
2022/04/23 05:13:40;;;;;;;34.28;7.30;;;14.40;99.90;;;;;;5026987;28;20767;-74
2022/04/23 05:16:08;;;;;;;38.85;8.50;;;14.20;99.90;;;;;;5027224;28;20052;-74
2022/04/23 05:18:37;;;;;;;38.35;8.35;;;14.10;99.90;;;;;;5020595;28;20121;-73
2022/04/23 05:21:04;;;;;;;43.75;8.70;;;14.00;99.90;;;;;;5020638;28;20046;-73
2022/04/23 05:23:31;;;;;;;31.05;7.95;;;13.90;99.90;;;;;;5007166;28;20048;-74
2022/04/23 05:25:57;;;;;;;37.05;8.55;;;13.90;99.90;;;;;;5023923;28;20049;-73
2022/04/23 05:28:23;;;;;;;41.42;8.68;;;13.90;99.90;;;;;;5043938;28;20079;-75
2022/04/23 05:30:50;;;;;;;41.65;10.70;;;13.80;99.90;;;;;;5029959;28;20041;-74
2022/04/23 05:33:16;;;;;;;37.72;8.60;;;13.80;99.90;;;;;;5043919;28;20056;-74
2022/04/23 05:35:44;;;;;;;36.20;9.43;;;13.80;99.90;;;;;;5046416;28;20444;-74
2022/04/23 05:38:10;;;;;;;36.70;8.60;;;13.90;99.90;;;;;;5038292;28;20060;-73
2022/04/23 05:40:35;;;;;;;41.67;9.00;;;13.80;99.90;;;;;;5033054;28;20041;-72
2022/04/23 05:43:02;;;;;;;50.60;10.52;;;13.70;99.90;;;;;;5031386;28;20067;-73
2022/04/23 05:45:30;;;;;;;39.38;9.80;;;13.70;99.90;;;;;;5031523;28;20045;-73
2022/04/23 05:47:57;;;;;;;50.65;10.65;;;13.60;99.90;;;;;;4995279;28;20037;-74
2022/04/23 05:50:23;;;;;;;41.72;8.90;;;13.70;99.90;;;;;;5042542;28;20061;-74
2022/04/23 05:52:49;;;;;;;40.58;8.95;;;13.60;99.90;;;;;;5030684;28;20080;-74
2022/04/23 05:55:16;;;;;;;47.55;9.88;;;13.80;99.90;;;;;;5019887;28;20092;-75
2022/04/23 05:57:42;;;;;;;38.40;9.77;;;13.70;99.90;;;;;;5023100;28;20037;-74
2022/04/23 06:00:10;;;;;;;40.22;9.90;;;13.80;99.90;;;;;;5021006;28;20040;-73
2022/04/23 06:02:36;;;;;;;38.40;9.68;;;13.50;99.90;;;;;;5040500;28;20104;-73
2022/04/23 06:05:03;;;;;;;38.83;9.82;;;13.70;99.90;;;;;;5028167;28;20037;-74
2022/04/23 06:07:31;;;;;;;42.05;10.77;;;13.60;99.90;;;;;;5027153;28;20036;-73
2022/04/23 06:09:57;;;;;;;37.47;9.50;;;13.80;99.90;;;;;;5030267;28;20558;-73
2022/04/23 06:12:23;;;;;;;39.95;10.35;;;13.50;99.90;;;;;;5011325;28;20357;-73
2022/04/23 06:14:51;;;;;;;42.33;10.30;;;13.70;99.90;;;;;;5044473;28;20041;-74
2022/04/23 06:17:24;;;;;;;44.78;10.07;;;13.70;99.90;;;;;;5027880;28;20033;-75
2022/04/23 06:19:51;;;;;;;48.22;10.63;;;13.70;99.90;;;;;;5037879;28;20116;-76
2022/04/23 06:22:17;;;;;;;46.85;10.73;;;13.90;99.90;;;;;;5020453;28;20093;-74
2022/04/23 06:24:43;;;;;;;42.55;10.23;;;13.80;99.90;;;;;;5021313;28;20064;-73
2022/04/23 06:27:11;;;;;;;48.83;10.77;;;14.00;99.90;;;;;;5018271;28;20037;-74
2022/04/23 06:29:41;;;;;;;47.78;9.77;;;13.90;99.90;;;;;;5021402;28;20096;-73
2022/04/23 06:32:11;;;;;;;44.67;9.13;;;14.20;99.90;;;;;;5004000;28;20045;-75
2022/04/23 06:34:38;;;;;;;40.13;9.63;;;14.20;99.90;;;;;;5019697;28;20563;-74
2022/04/23 06:37:06;;;;;;;38.70;10.48;;;14.00;99.90;;;;;;5023144;28;20033;-74
2022/04/23 06:39:32;;;;;;;45.33;10.93;;;14.10;99.90;;;;;;5017715;28;20042;-75
2022/04/23 06:41:59;;;;;;;45.40;10.45;;;13.80;99.90;;;;;;5022273;28;20627;-74
2022/04/23 06:44:25;;;;;;;36.65;10.02;;;14.00;99.90;;;;;;5013095;28;21784;-75
2022/04/23 06:46:51;;;;;;;36.28;9.82;;;14.00;99.90;;;;;;5017532;28;20793;-75
2022/04/23 06:49:18;;;;;;;44.10;10.68;;;13.90;99.90;;;;;;5029977;28;20056;-75
2022/04/23 06:51:46;;;;;;;36.30;8.80;;;14.10;99.90;;;;;;5028905;28;20029;-75
2022/04/23 06:54:12;;;;;;;35.13;8.57;;;13.90;99.90;;;;;;5014439;28;20036;-74
2022/04/23 06:56:39;;;;;;;38.13;8.82;;;13.80;99.90;;;;;;5028879;28;20553;-76
2022/04/23 06:59:05;;;;;;;38.90;8.82;;;13.80;99.90;;;;;;5042851;28;20041;-73
2022/04/23 07:01:31;;;;;;;34.08;8.27;;;13.90;99.90;;;;;;5012708;28;20061;-74
2022/04/23 07:03:59;;;;;;;38.67;9.82;;;14.00;99.90;;;;;;5037903;28;20041;-73
2022/04/23 07:06:25;;;;;;;33.67;9.07;;;13.90;99.90;;;;;;5035591;28;20040;-74
2022/04/23 07:08:51;;;;;;;34.78;9.35;;;14.30;99.90;;;;;;5042908;28;20562;-74
2022/04/23 07:11:17;;;;;;;37.25;8.68;;;14.30;99.90;;;;;;5020030;28;20040;-75
2022/04/23 07:13:45;;;;;;;35.83;9.13;;;14.30;99.90;;;;;;5021862;28;20044;-75
2022/04/23 07:16:13;;;;;;;37.38;9.00;;;14.40;99.90;;;;;;5011903;28;20037;-75
2022/04/23 07:18:42;;;;;;;36.42;9.20;;;14.20;99.90;;;;;;5045362;28;20071;-74
2022/04/23 07:21:07;;;;;;;32.53;8.70;;;14.60;99.90;;;;;;5027228;28;20039;-71
2022/04/23 07:26:18;;;;;;;40.00;9.02;;;14.40;99.90;;;;;;5040773;28;20087;-73
2022/04/23 07:28:44;;;;;;;35.10;8.38;;;14.30;99.90;;;;;;5032627;28;20140;-71
2022/04/23 07:31:11;;;;;;;33.17;9.68;;;14.00;99.90;;;;;;5038070;28;20033;-71
2022/04/23 07:39:27;;;;;;;40.72;8.75;;;14.30;99.90;;;;;;4962287;28;20031;-71
2022/04/23 07:41:54;;;;;;;46.53;9.55;;;14.40;99.90;;;;;;4965187;28;20045;-71
2022/04/23 07:44:23;;;;;;;39.33;10.40;;;14.40;99.90;;;;;;4971723;28;20509;-71
2022/04/23 07:46:50;;;;;;;42.30;10.80;;;14.20;99.90;;;;;;5036348;28;20050;-74
2022/04/23 07:49:17;;;;;;;39.50;9.82;;;14.30;99.90;;;;;;5038235;28;20038;-70
2022/04/23 07:51:49;;;;;;;43.75;9.38;;;14.30;99.90;;;;;;5035291;28;20041;-70
2022/04/23 07:54:15;;;;;;;41.85;9.70;;;14.30;99.90;;;;;;5020809;28;20036;-76
2022/04/23 07:56:41;;;;;;;48.58;9.90;;;14.20;99.90;;;;;;5027463;28;20480;-72
2022/04/23 07:59:09;;;;;;;39.85;10.80;;;14.30;99.90;;;;;;5025012;28;20067;-71
2022/04/23 08:01:35;;;;;;;48.03;10.77;;;14.20;99.90;;;;;;5042327;28;20049;-72
2022/04/23 08:04:03;;;;;;;47.58;11.75;;;14.20;99.90;;;;;;5036984;28;20452;-71
2022/04/23 08:06:30;;;;;;;39.25;9.60;;;14.10;99.90;;;;;;5042721;28;20368;-71
2022/04/23 08:08:56;;;;;;;30.85;9.05;;;14.30;99.90;;;;;;5037444;28;20060;-71
2022/04/23 08:11:23;;;;;;;28.42;7.45;;;14.00;99.90;;;;;;5040610;28;20041;-72
2022/04/23 08:13:50;;;;;;;17.52;5.13;;;14.00;99.90;;;;;;5035139;28;20099;-71
2022/04/23 08:16:17;;;;;;;20.75;4.50;;;14.00;99.90;;;;;;5021717;28;20050;-72
2022/04/23 08:18:43;;;;;;;19.48;4.38;;;13.90;99.90;;;;;;5023845;28;20164;-71
2022/04/23 08:21:10;;;;;;;15.27;3.80;;;14.00;99.90;;;;;;5026361;28;20033;-74
2022/04/23 08:23:36;;;;;;;20.15;4.35;;;13.90;99.90;;;;;;5038045;28;20049;-72
2022/04/23 08:26:05;;;;;;;20.33;4.13;;;14.00;99.90;;;;;;5039378;28;20079;-71
2022/04/23 08:31:18;;;;;;;10.52;2.42;;;14.00;99.90;;;;;;5036158;28;20092;-71
2022/04/23 08:33:59;;;;;;;7.80;2.03;;;13.70;99.90;;;;;;5038212;28;20045;-72
2022/04/23 08:36:36;;;;;;;7.32;2.00;;;13.70;99.90;;;;;;5021539;28;20060;-71
2022/04/23 08:39:06;;;;;;;11.50;1.88;;;13.60;99.90;;;;;;5035787;28;20403;-72
2022/04/23 08:41:35;;;;;;;11.73;1.77;;;14.00;99.90;;;;;;5031874;28;20501;-72
2022/04/23 08:44:06;;;;;;;7.22;2.00;;;14.10;99.90;;;;;;5020669;28;20042;-72
2022/04/23 08:46:42;;;;;;;8.00;2.00;;;14.30;99.90;;;;;;5020486;28;20039;-71
2022/04/23 08:49:16;;;;;;;10.13;2.28;;;14.20;99.90;;;;;;5019454;28;20092;-72
2022/04/23 08:51:52;;;;;;;14.30;1.98;;;14.30;99.90;;;;;;5052468;28;20580;-72
2022/04/23 08:54:19;;;;;;;10.75;2.28;;;14.50;99.90;;;;;;5057132;28;20072;-72
2022/04/23 08:56:46;;;;;;;11.80;2.28;;;14.70;99.90;;;;;;5024970;28;20033;-72
2022/04/23 08:59:16;;;;;;;8.35;1.70;;;15.00;99.90;;;;;;5051977;28;20033;-71
2022/04/23 09:01:44;;;;;;;11.43;2.30;;;14.90;99.90;;;;;;5036002;28;20463;-72
2022/04/23 09:04:12;;;;;;;10.63;2.40;;;15.00;99.90;;;;;;5018474;28;20041;-72
2022/04/23 09:06:41;;;;;;;11.75;2.30;;;15.10;99.90;;;;;;5041450;28;20029;-72
2022/04/23 09:09:13;;;;;;;14.30;2.67;;;15.30;99.90;;;;;;5038923;28;20028;-73
2022/04/23 09:11:44;;;;;;;11.55;2.53;;;15.00;99.90;;;;;;5032606;28;20052;-72
2022/04/23 09:14:31;;;;;;;18.83;2.88;;;14.40;99.90;;;;;;5036844;28;20043;-72
2022/04/23 09:25:31;;;;;;;16.48;2.85;;;15.30;99.90;;;;;;5042763;28;20048;-71
2022/04/23 09:28:17;;;;;;;11.95;2.55;;;15.30;99.90;;;;;;5022893;28;20033;-72
2022/04/23 09:30:44;;;;;;;10.02;2.15;;;14.60;99.90;;;;;;5038633;28;20049;-71
2022/04/23 09:33:11;;;;;;;15.25;2.60;;;14.30;99.90;;;;;;5024712;28;20043;-72
2022/04/23 09:35:52;;;;;;;10.35;2.30;;;14.80;99.90;;;;;;5047216;28;20057;-72
2022/04/23 09:38:18;;;;;;;12.90;2.38;;;14.80;99.90;;;;;;5031204;28;20050;-71
2022/04/23 09:40:52;;;;;;;13.20;2.70;;;15.50;99.90;;;;;;5026016;28;20098;-71
2022/04/23 09:43:25;;;;;;;15.65;2.22;;;15.10;99.90;;;;;;5017302;28;20106;-70
2022/04/23 09:46:01;;;;;;;15.45;3.47;;;14.70;99.90;;;;;;5024770;28;20088;-72
2022/04/23 09:48:27;;;;;;;14.13;2.65;;;14.70;99.90;;;;;;5034217;28;20033;-72
2022/04/23 09:50:53;;;;;;;12.90;2.92;;;14.50;99.90;;;;;;5040514;28;20037;-71
2022/04/23 09:53:21;;;;;;;16.90;3.15;;;14.50;99.90;;;;;;5031755;28;20033;-71
2022/04/23 09:55:49;;;;;;;12.85;2.67;;;14.60;99.90;;;;;;5026391;28;20124;-73
2022/04/23 09:58:18;;;;;;;11.90;2.75;;;14.50;99.90;;;;;;5015129;28;20036;-71
2022/04/23 10:00:47;;;;;;;10.90;2.78;;;15.10;99.90;;;;;;5040573;28;20056;-71
2022/04/23 10:03:14;;;;;;;13.93;3.47;;;16.20;99.90;;;;;;5027401;28;20045;-72
2022/04/23 10:05:48;;;;;;;11.00;2.40;;;17.40;99.90;;;;;;5043869;28;20100;-71
2022/04/23 10:08:16;;;;;;;14.77;2.63;;;16.70;99.90;;;;;;5020402;28;20080;-72
2022/04/23 10:10:59;;;;;;;14.25;3.22;;;17.80;99.90;;;;;;5038728;28;20041;-71
2022/04/23 10:13:29;;;;;;;11.48;2.63;;;17.60;99.90;;;;;;5042906;28;20476;-71
2022/04/23 10:15:57;;;;;;;14.80;2.72;;;17.50;99.90;;;;;;5039974;28;20041;-71
2022/04/23 10:18:23;;;;;;;12.35;2.97;;;17.40;99.90;;;;;;5022877;28;20055;-71
2022/04/23 10:20:55;;;;;;;14.15;3.28;;;16.70;99.90;;;;;;5044122;28;20030;-74
2022/04/23 10:24:00;;;;;;;13.60;2.88;;;16.70;99.90;;;;;;5024683;28;20057;-71
2022/04/23 10:26:40;;;;;;;15.68;4.05;;;16.40;99.90;;;;;;5017081;28;20033;-74
2022/04/23 10:29:13;;;;;;;12.75;3.25;;;17.30;99.90;;;;;;5040998;28;20033;-72
2022/04/23 10:31:41;;;;;;;11.90;3.10;;;17.30;99.90;;;;;;5013376;28;20032;-72
2022/04/23 10:34:33;;;;;;;10.98;2.83;;;17.30;99.90;;;;;;5036730;28;20393;-70
2022/04/23 10:37:18;;;;;;;15.13;3.33;;;16.80;99.90;;;;;;5026563;28;20041;-72
2022/04/23 10:39:45;;;;;;;12.65;3.28;;;17.30;99.90;;;;;;5045891;28;20095;-71
2022/04/23 10:42:13;;;;;;;14.55;2.60;;;18.00;99.90;;;;;;5026990;28;20037;-71
2022/04/23 10:44:40;;;;;;;11.35;2.70;;;18.00;99.90;;;;;;5024108;28;20033;-73
2022/04/23 10:47:34;;;;;;;18.75;2.90;;;17.00;99.90;;;;;;5040536;28;20493;-72
2022/04/23 10:50:20;;;;;;;9.90;2.45;;;16.60;99.90;;;;;;5013040;28;20029;-72
2022/04/23 10:52:49;;;;;;;28.15;4.25;;;15.90;99.90;;;;;;5023376;28;21100;-70
2022/04/23 10:55:15;;;;;;;21.23;2.55;;;13.00;99.90;;;;;;5039409;28;20048;-72
2022/04/23 10:57:51;;;;;;;16.08;3.30;;;10.10;99.90;;;;;;5016992;28;20029;-73
2022/04/23 11:00:20;;;;;;;16.38;3.80;;;11.10;99.90;;;;;;5008505;28;20070;-74
2022/04/23 11:03:08;;;;;;;10.57;2.35;;;11.30;99.90;;;;;;5027854;28;20065;-75
2022/04/23 11:14:05;;;;;;;4.00;1.35;;;11.70;99.90;;;;;;5010729;28;20178;-75
2022/04/23 11:16:31;;;;;;;2.78;1.23;;;12.20;99.90;;;;;;5015209;28;20586;-74
2022/04/23 11:19:00;;;;;;;7.63;1.30;;;12.80;99.90;;;;;;5014779;28;20033;-74
2022/04/23 11:21:32;;;;;;;5.68;1.38;;;13.20;99.90;;;;;;5009794;28;20053;-74
2022/04/23 11:24:00;;;;;;;6.40;1.80;;;13.60;99.90;;;;;;5012374;28;20251;-73
2022/04/23 11:26:41;;;;;;;6.07;1.70;;;14.10;99.90;;;;;;5031374;28;20458;-74
2022/04/23 11:29:08;;;;;;;9.75;2.00;;;13.60;99.90;;;;;;5008652;28;20045;-75
2022/04/23 11:31:35;;;;;;;7.85;2.22;;;13.60;99.90;;;;;;4998524;28;20510;-73
2022/04/23 11:34:02;;;;;;;16.33;2.97;;;13.60;99.90;;;;;;5029519;28;20455;-73
2022/04/23 11:36:30;;;;;;;12.32;2.97;;;13.60;99.90;;;;;;5012641;28;20036;-72
2022/04/23 11:38:58;;;;;;;18.30;3.13;;;13.80;99.90;;;;;;5011130;28;20037;-74
2022/04/23 11:41:35;;;;;;;12.68;2.88;;;14.40;99.90;;;;;;5011047;28;20065;-73
2022/04/23 11:44:16;;;;;;;14.55;3.58;;;14.30;99.90;;;;;;5013066;28;20592;-74
2022/04/23 11:46:47;;;;;;;16.10;3.08;;;14.30;99.90;;;;;;5011288;28;20029;-73
2022/04/23 11:49:30;;;;;;;18.63;3.22;;;15.40;99.90;;;;;;5003125;28;20037;-74
2022/04/23 11:52:07;;;;;;;20.67;3.55;;;16.40;99.90;;;;;;5017308;28;20038;-74
2022/04/23 11:54:37;;;;;;;13.57;3.00;;;16.90;99.90;;;;;;5026714;28;20049;-73
2022/04/23 11:57:05;;;;;;;15.65;3.45;;;15.70;99.90;;;;;;5040711;28;20666;-72
2022/04/23 11:59:59;;;;;;;8.48;2.40;;;14.90;99.90;;;;;;5043087;28;20062;-72
2022/04/23 12:02:30;;;;;;;8.13;2.30;;;14.80;99.90;;;;;;4993723;28;20029;-73
2022/04/23 12:04:58;;;;;;;9.52;2.45;;;14.20;99.90;;;;;;5038971;28;20038;-72
2022/04/23 12:07:25;;;;;;;12.15;2.33;;;12.90;99.90;;;;;;5019796;28;20099;-71
2022/04/23 12:09:52;;;;;;;12.57;3.08;;;12.60;99.90;;;;;;5020631;28;20045;-72
2022/04/23 12:12:26;;;;;;;11.90;2.15;;;12.30;99.90;;;;;;5027137;28;20036;-72
2022/04/23 12:14:53;;;;;;;16.05;2.65;;;12.40;99.90;;;;;;5025899;28;20040;-73
2022/04/23 12:17:29;;;;;;;11.90;2.63;;;12.10;99.90;;;;;;5048246;28;20037;-73
2022/04/23 12:20:08;;;;;;;6.63;1.30;;;11.90;99.90;;;;;;5040828;28;20041;-76
2022/04/23 12:22:35;;;;;;;7.22;1.35;;;10.90;99.90;;;;;;5035560;28;20099;-75
2022/04/23 12:25:21;;;;;;;4.80;1.15;;;10.10;99.90;;;;;;5018964;28;20048;-75
2022/04/23 12:27:58;;;;;;;4.43;1.00;;;9.10;99.90;;;;;;5021868;28;20565;-75
2022/04/23 12:42:11;;;;;;;4.55;0.98;;;9.20;99.90;;;;;;5036966;28;20499;-73
2022/04/23 12:44:42;;;;;;;4.75;0.80;;;9.60;99.90;;;;;;5022197;28;20123;-74
2022/04/23 12:47:12;;;;;;;2.58;0.80;;;9.60;99.90;;;;;;5025918;28;20179;-73
2022/04/23 12:49:57;;;;;;;2.58;0.82;;;10.10;99.90;;;;;;5013239;28;20049;-73
2022/04/23 12:52:25;;;;;;;3.40;0.98;;;10.00;99.90;;;;;;5023535;28;20773;-73
2022/04/23 12:55:10;;;;;;;1.85;0.68;;;9.80;99.90;;;;;;5034042;28;20033;-75
2022/04/23 12:57:36;;;;;;;0.88;0.55;;;9.90;99.90;;;;;;5019992;28;20029;-74
2022/04/23 13:00:05;;;;;;;2.33;0.75;;;9.80;99.90;;;;;;5008580;28;20053;-73
2022/04/23 13:02:39;;;;;;;2.55;0.50;;;9.90;99.90;;;;;;4990476;28;20048;-74
2022/04/23 13:05:08;;;;;;;1.83;0.60;;;9.80;99.90;;;;;;5008923;28;20374;-74
2022/04/23 13:10:20;;;;;;;2.67;0.93;;;10.70;99.90;;;;;;5027066;28;20052;-77
2022/04/23 13:12:46;;;;;;;3.25;0.90;;;11.20;99.90;;;;;;5009369;28;20052;-73
2022/04/23 13:15:12;;;;;;;0.75;0.32;;;11.00;99.90;;;;;;5030237;28;20627;-74
2022/04/23 13:17:39;;;;;;;1.33;0.60;;;11.10;99.90;;;;;;5031935;28;20095;-74
2022/04/23 13:20:08;;;;;;;0.85;0.60;;;11.60;99.90;;;;;;5029615;28;20045;-74
2022/04/23 13:22:36;;;;;;;1.20;0.70;;;11.90;99.90;;;;;;5013404;28;20060;-74
2022/04/23 13:25:13;;;;;;;2.03;0.90;;;12.30;99.90;;;;;;5031934;28;20056;-74
2022/04/23 13:27:40;;;;;;;2.28;1.00;;;12.70;99.90;;;;;;5034101;28;20645;-75